Balmat, New York
Current Conditions -  °F | °C
As of 10:58 PM on Monday 22 Dec 2014 (Local Time) from KGTB Reporting Station
Broken Clouds Broken Clouds  
Wind Chill: 28°   Ceiling: 9000
Heat Index: 36°   Visibility: 10mi
Dew Point: 28°   Wind: 12mph
Humidity: 73%   Direction: 140°SE
Pressure: 30.13"   Gusts: NA
Location:  44.2483°N, 75.3953°W
Report Text: KGTB 230358Z AUTO 14010KT 10SM FEW029 BKN090 02/M02 A3013 RMK AO2 SLP211 T00211023
Loading
Personal Weather Stations






























Interactive Weather Map New forecast layout! Learn more

10-Day Weather Forecast

Advertisements
Track Severe Weather on mobile